createdAt,value
2023-01-19T00:02:25.614Z,23.50
2023-01-19T00:04:52.299Z,19.43
2023-01-19T00:07:18.872Z,17.83
2023-01-19T00:09:45.499Z,23.60
2023-01-19T00:12:12.142Z,25.07
2023-01-19T00:14:38.724Z,17.70
2023-01-19T00:17:05.385Z,20.70
2023-01-19T00:19:32.019Z,20.57
2023-01-19T00:21:58.572Z,20.97
2023-01-19T00:24:25.176Z,19.07
2023-01-19T00:26:51.839Z,22.47
2023-01-19T00:29:18.509Z,23.53
2023-01-19T00:31:45.173Z,25.23
2023-01-19T00:34:11.732Z,23.20
2023-01-19T00:36:38.316Z,19.63
2023-01-19T00:39:04.874Z,22.33
2023-01-19T00:41:49.887Z,14.13
2023-01-19T00:44:16.512Z,23.30
2023-01-19T00:46:43.165Z,22.30
2023-01-19T00:49:09.863Z,23.63
2023-01-19T00:51:36.539Z,20.70
2023-01-19T00:54:05.048Z,19.70
2023-01-19T00:56:32.405Z,19.00
2023-01-19T00:59:00.037Z,19.63
2023-01-19T01:01:46.103Z,23.40
2023-01-19T01:04:13.693Z,24.20
2023-01-19T01:06:40.490Z,22.10
2023-01-19T01:09:12.110Z,21.03
2023-01-19T01:11:42.848Z,19.07
2023-01-19T01:14:11.598Z,18.43
2023-01-19T01:16:38.630Z,26.30
2023-01-19T01:19:05.274Z,21.17
2023-01-19T01:21:31.994Z,26.00
2023-01-19T01:23:58.557Z,20.03
2023-01-19T01:26:27.127Z,22.43
2023-01-19T01:28:54.551Z,18.20
2023-01-19T01:31:21.257Z,15.47
2023-01-19T01:33:47.895Z,22.80
2023-01-19T01:36:14.599Z,13.87
2023-01-19T01:38:41.726Z,27.70
2023-01-19T01:41:08.766Z,19.77
2023-01-19T01:44:08.309Z,25.67
2023-01-19T01:46:35.157Z,18.87
2023-01-19T01:49:06.150Z,27.33
2023-01-19T01:51:37.708Z,21.63
2023-01-19T01:54:04.235Z,17.70
2023-01-19T01:56:35.463Z,21.23
2023-01-19T01:59:06.987Z,24.10
2023-01-19T02:01:52.830Z,26.00
2023-01-19T02:04:19.752Z,20.60
2023-01-19T02:07:05.297Z,20.30
2023-01-19T02:09:51.444Z,17.17
2023-01-19T02:12:36.479Z,32.67
2023-01-19T02:15:03.205Z,21.40
2023-01-19T02:17:29.800Z,29.93
2023-01-19T02:19:57.952Z,25.37
2023-01-19T02:22:39.023Z,23.10
2023-01-19T02:25:06.415Z,19.80
2023-01-19T02:27:33.417Z,22.47
2023-01-19T02:30:00.612Z,16.63
2023-01-19T02:32:27.202Z,19.50
2023-01-19T02:34:54.074Z,23.47
2023-01-19T02:37:21.475Z,20.10
2023-01-19T02:39:51.843Z,20.10
2023-01-19T02:42:28.452Z,21.70
2023-01-19T02:44:57.178Z,22.03
2023-01-19T02:47:24.315Z,21.37
2023-01-19T02:49:58.073Z,18.80
2023-01-19T02:52:24.993Z,22.13
2023-01-19T02:55:15.447Z,26.00
2023-01-19T02:58:08.747Z,20.20
2023-01-19T03:00:46.362Z,24.47
2023-01-19T03:03:28.070Z,21.47
2023-01-19T03:06:36.718Z,20.67
2023-01-19T03:09:13.765Z,21.07
2023-01-19T03:11:42.426Z,25.13
2023-01-19T03:14:23.539Z,32.67
2023-01-19T03:16:55.335Z,28.17
2023-01-19T03:19:48.535Z,23.63
2023-01-19T03:22:27.226Z,21.83
2023-01-19T03:24:56.069Z,21.73
2023-01-19T03:27:26.631Z,23.97
2023-01-19T03:29:56.610Z,28.23
2023-01-19T03:32:29.805Z,23.77
2023-01-19T03:34:58.695Z,25.63
2023-01-19T03:37:26.237Z,22.67
2023-01-19T03:39:52.881Z,24.50
2023-01-19T03:42:19.764Z,24.40
2023-01-19T03:44:50.507Z,19.40
2023-01-19T03:47:17.673Z,29.03
2023-01-19T03:49:45.519Z,25.20
2023-01-19T03:52:12.945Z,30.03
2023-01-19T03:54:41.032Z,26.77
2023-01-19T03:57:07.987Z,25.50
2023-01-19T03:59:35.189Z,24.60
2023-01-19T04:02:01.919Z,26.93
2023-01-19T04:04:28.595Z,28.83
2023-01-19T04:06:55.137Z,27.90
2023-01-19T04:09:21.747Z,19.60
2023-01-19T04:11:48.385Z,23.67
2023-01-19T04:14:15.063Z,23.80
2023-01-19T04:16:41.619Z,22.43
2023-01-19T04:19:08.183Z,32.90
2023-01-19T04:21:35.270Z,24.67
2023-01-19T04:24:01.914Z,25.83
2023-01-19T04:26:28.867Z,17.97
2023-01-19T04:28:55.423Z,29.63
2023-01-19T04:31:23.362Z,24.90
2023-01-19T04:33:50.118Z,25.97
2023-01-19T04:36:16.680Z,24.87
2023-01-19T04:38:43.289Z,26.40
2023-01-19T04:41:10.013Z,25.43
2023-01-19T04:43:36.612Z,20.43
2023-01-19T04:46:03.411Z,26.23
2023-01-19T04:48:30.065Z,21.80
2023-01-19T04:50:56.665Z,21.40
2023-01-19T04:53:23.277Z,33.23
2023-01-19T04:55:54.899Z,25.23
2023-01-19T04:58:21.542Z,24.60
2023-01-19T05:00:48.555Z,27.10
2023-01-19T05:03:15.385Z,33.47
2023-01-19T05:05:41.960Z,31.70
2023-01-19T05:08:08.520Z,29.23
2023-01-19T05:10:36.654Z,30.63
2023-01-19T05:13:03.507Z,35.30
2023-01-19T05:15:30.244Z,34.37
2023-01-19T05:17:58.116Z,26.10
2023-01-19T05:20:25.339Z,23.00
2023-01-19T05:22:52.695Z,26.93
2023-01-19T05:25:20.286Z,30.20
2023-01-19T05:27:46.939Z,25.33
2023-01-19T05:30:13.971Z,23.20
2023-01-19T05:32:40.598Z,26.17
2023-01-19T05:35:07.807Z,28.67
2023-01-19T05:37:34.379Z,25.47
2023-01-19T05:40:00.950Z,32.10
2023-01-19T05:42:27.577Z,24.87
2023-01-19T05:44:54.310Z,33.90
2023-01-19T05:47:20.942Z,21.13
2023-01-19T05:49:47.641Z,25.53
2023-01-19T05:52:14.947Z,25.47
2023-01-19T05:54:41.529Z,34.23
2023-01-19T05:57:08.486Z,25.33
2023-01-19T05:59:35.267Z,25.60
2023-01-19T06:02:01.950Z,31.23
2023-01-19T06:04:28.557Z,25.33
2023-01-19T06:06:55.152Z,29.70
2023-01-19T06:09:21.854Z,24.03
2023-01-19T06:11:48.738Z,20.60
2023-01-19T06:14:15.363Z,24.73
2023-01-19T06:16:42.089Z,22.63
2023-01-19T06:19:08.751Z,30.83
2023-01-19T06:21:35.393Z,16.97
2023-01-19T06:24:02.066Z,27.73
2023-01-19T06:26:28.640Z,27.40
2023-01-19T06:28:55.470Z,34.27
2023-01-19T06:31:22.220Z,29.13
2023-01-19T06:33:48.846Z,26.13
2023-01-19T06:36:15.483Z,26.00
2023-01-19T06:38:42.064Z,25.67
2023-01-19T06:41:08.657Z,22.10
2023-01-19T06:43:35.335Z,32.27
2023-01-19T06:46:02.379Z,30.50
2023-01-19T06:48:29.043Z,31.30
2023-01-19T06:50:58.409Z,30.40
2023-01-19T06:53:27.808Z,27.67
2023-01-19T06:55:54.839Z,28.00
2023-01-19T06:58:21.609Z,21.67
2023-01-19T07:00:51.730Z,26.27
2023-01-19T07:03:20.878Z,25.67
2023-01-19T07:05:50.909Z,33.50
2023-01-19T07:08:17.535Z,26.70
2023-01-19T07:11:24.713Z,21.23
2023-01-19T07:13:31.046Z,27.97
2023-01-19T07:15:57.786Z,23.70
2023-01-19T07:18:24.379Z,24.97
2023-01-19T07:20:50.978Z,29.70
2023-01-19T07:23:17.654Z,22.67
2023-01-19T07:25:47.424Z,29.23
2023-01-19T07:28:16.042Z,34.03
2023-01-19T07:30:43.646Z,35.53
2023-01-19T07:33:10.367Z,35.97
2023-01-19T07:35:37.008Z,32.03
2023-01-19T07:38:03.903Z,23.27
2023-01-19T07:40:30.721Z,25.00
2023-01-19T07:42:57.378Z,24.20
2023-01-19T07:45:23.942Z,27.47
2023-01-19T07:47:51.187Z,26.93
2023-01-19T07:50:21.392Z,15.93
2023-01-19T07:52:50.790Z,21.37
2023-01-19T07:55:17.653Z,27.57
2023-01-19T07:57:44.321Z,25.27
2023-01-19T08:00:11.647Z,31.37
2023-01-19T08:02:38.467Z,30.40
2023-01-19T08:05:05.460Z,25.30
2023-01-19T08:07:33.642Z,22.63
2023-01-19T08:10:00.307Z,26.40
2023-01-19T08:12:27.062Z,29.20
2023-01-19T08:14:53.836Z,27.33
2023-01-19T08:17:20.386Z,29.07
2023-01-19T08:19:47.101Z,27.47
2023-01-19T08:22:13.745Z,30.73
2023-01-19T08:24:40.336Z,26.40
2023-01-19T08:27:07.097Z,30.63
2023-01-19T08:29:33.867Z,25.83
2023-01-19T08:32:02.791Z,19.67
2023-01-19T08:34:33.068Z,29.10
2023-01-19T08:36:59.774Z,26.23
2023-01-19T08:39:27.482Z,31.50
2023-01-19T08:41:54.313Z,28.17
2023-01-19T08:44:20.949Z,24.57
2023-01-19T08:47:03.903Z,31.28
2023-01-19T08:49:30.572Z,35.83
2023-01-19T08:51:57.138Z,25.33
2023-01-19T08:54:24.263Z,29.80
2023-01-19T08:56:50.840Z,38.00
2023-01-19T08:59:17.978Z,31.03
2023-01-19T09:01:44.892Z,35.57
2023-01-19T09:04:11.673Z,30.80
2023-01-19T09:06:38.276Z,33.63
2023-01-19T09:09:04.923Z,27.53
2023-01-19T09:11:31.559Z,30.10
2023-01-19T09:13:58.170Z,34.07
2023-01-19T09:16:27.178Z,32.70
2023-01-19T09:18:54.234Z,22.10
2023-01-19T09:21:20.850Z,27.43
2023-01-19T09:23:49.268Z,25.63
2023-01-19T09:26:16.706Z,32.53
2023-01-19T09:28:43.303Z,23.83
2023-01-19T09:31:09.993Z,33.97
2023-01-19T09:33:36.750Z,30.33
2023-01-19T09:36:03.528Z,26.50
2023-01-19T09:38:32.860Z,25.50
2023-01-19T09:41:00.887Z,27.17
2023-01-19T09:43:39.648Z,30.60
2023-01-19T09:46:15.953Z,31.20
2023-01-19T09:48:51.838Z,26.50
2023-01-19T09:51:18.407Z,29.03
2023-01-19T09:53:53.345Z,25.77
2023-01-19T09:56:21.194Z,26.47
2023-01-19T09:58:49.111Z,23.70
2023-01-19T10:01:15.766Z,31.63
2023-01-19T10:03:42.512Z,25.63
2023-01-19T10:06:12.037Z,24.83
2023-01-19T10:08:57.476Z,25.77
2023-01-19T10:11:46.688Z,26.63
2023-01-19T10:14:38.673Z,16.87
2023-01-19T10:17:24.495Z,33.20
2023-01-19T10:19:54.116Z,33.10
2023-01-19T10:22:25.811Z,25.53
2023-01-19T10:25:06.156Z,28.10
2023-01-19T10:27:34.957Z,27.07
2023-01-19T10:30:02.115Z,24.30
2023-01-19T10:32:35.851Z,21.37
2023-01-19T10:35:14.441Z,25.30
2023-01-19T10:37:42.080Z,18.10
2023-01-19T10:40:11.797Z,27.03
2023-01-19T10:42:40.577Z,21.03
2023-01-19T10:45:16.278Z,20.93
2023-01-19T10:47:44.732Z,26.43
2023-01-19T10:50:28.047Z,23.07
2023-01-19T10:52:57.132Z,27.23
2023-01-19T10:55:42.704Z,20.10
2023-01-19T10:58:30.711Z,16.27
2023-01-19T11:01:19.954Z,24.30
2023-01-19T11:03:46.690Z,18.20
2023-01-19T11:06:16.298Z,18.37
2023-01-19T11:08:51.888Z,21.96
2023-01-19T11:11:23.655Z,26.00
2023-01-19T11:14:23.301Z,16.63
2023-01-19T11:16:55.076Z,21.93
2023-01-19T11:19:26.282Z,20.67
2023-01-19T11:21:53.597Z,21.17
2023-01-19T11:24:20.549Z,16.60
2023-01-19T11:26:50.696Z,24.50
2023-01-19T11:29:21.776Z,21.30
2023-01-19T11:31:49.212Z,19.23
2023-01-19T11:34:34.665Z,23.40
2023-01-19T11:37:03.566Z,19.53
2023-01-19T11:39:32.805Z,22.17
2023-01-19T11:42:01.936Z,21.27
2023-01-19T11:44:32.927Z,23.20
2023-01-19T11:47:01.467Z,21.47
2023-01-19T11:49:37.761Z,19.47
2023-01-19T11:52:20.588Z,14.80
2023-01-19T11:55:17.709Z,21.10
2023-01-19T11:57:47.255Z,23.70
2023-01-19T12:00:24.072Z,15.73
2023-01-19T12:02:54.650Z,17.03
2023-01-19T12:05:22.760Z,24.37
2023-01-19T12:07:50.369Z,18.17
2023-01-19T12:10:25.852Z,14.20
2023-01-19T12:12:53.913Z,17.67
2023-01-19T12:15:44.572Z,22.47
2023-01-19T12:18:27.297Z,15.87
2023-01-19T12:20:55.251Z,11.73
2023-01-19T12:23:25.961Z,17.63
2023-01-19T12:26:20.931Z,13.17
2023-01-19T12:28:49.477Z,12.50
2023-01-19T12:31:17.417Z,18.17
2023-01-19T12:33:44.411Z,16.07
2023-01-19T12:36:35.604Z,20.33
2023-01-19T12:39:04.754Z,12.13
2023-01-19T12:41:36.458Z,15.53
2023-01-19T12:44:12.388Z,17.13
2023-01-19T12:46:41.038Z,18.77
2023-01-19T12:49:21.823Z,15.17
2023-01-19T12:51:49.860Z,17.63
2023-01-19T12:54:31.814Z,15.23
2023-01-19T12:57:25.905Z,26.50
2023-01-19T12:59:57.398Z,13.00
2023-01-19T13:02:23.984Z,12.53
2023-01-19T13:05:13.630Z,12.95
2023-01-19T13:08:02.111Z,15.40
2023-01-19T13:10:53.359Z,16.50
2023-01-19T13:13:27.384Z,14.53
2023-01-19T13:15:55.853Z,12.23
2023-01-19T13:18:29.589Z,14.53
2023-01-19T13:20:56.115Z,13.20
2023-01-19T13:23:27.857Z,18.00
2023-01-19T13:26:02.002Z,13.13
2023-01-19T13:28:33.264Z,12.53
2023-01-19T13:31:02.707Z,13.90
2023-01-19T13:33:52.564Z,6.37
2023-01-19T13:36:30.895Z,12.50
2023-01-19T13:39:00.281Z,16.30
2023-01-19T13:41:29.751Z,14.00
2023-01-19T13:44:02.467Z,11.37
2023-01-19T13:46:30.688Z,18.43
2023-01-19T13:49:00.135Z,16.10
2023-01-19T13:51:27.091Z,13.67
2023-01-19T13:53:57.844Z,10.00
2023-01-19T13:56:28.510Z,9.37
2023-01-19T13:59:12.543Z,14.03
2023-01-19T14:01:41.656Z,12.87
2023-01-19T14:04:28.946Z,14.00
2023-01-19T14:07:01.388Z,9.87
2023-01-19T14:09:28.302Z,10.63
2023-01-19T14:12:09.845Z,11.77
2023-01-19T14:14:36.591Z,6.93
2023-01-19T14:17:04.016Z,9.00
2023-01-19T14:19:47.675Z,10.97
2023-01-19T14:22:14.346Z,8.93
2023-01-19T14:24:41.060Z,9.27
2023-01-19T14:27:09.645Z,10.80
2023-01-19T14:29:38.087Z,11.70
2023-01-19T14:32:06.134Z,9.00
2023-01-19T14:35:05.146Z,13.90
2023-01-19T14:37:36.790Z,8.73
2023-01-19T14:40:11.290Z,9.73
2023-01-19T14:43:00.136Z,10.47
2023-01-19T14:45:42.791Z,10.47
2023-01-19T14:48:17.885Z,7.90
2023-01-19T14:50:57.655Z,9.43
2023-01-19T14:53:29.896Z,10.40
2023-01-19T14:56:01.209Z,11.40
2023-01-19T14:58:31.724Z,12.83
2023-01-19T15:00:58.429Z,9.13
2023-01-19T15:03:34.961Z,6.37
2023-01-19T15:06:20.376Z,8.27
2023-01-19T15:08:48.840Z,6.20
2023-01-19T15:11:23.435Z,6.27
2023-01-19T15:13:50.768Z,12.50
2023-01-19T15:16:17.511Z,7.40
2023-01-19T15:18:44.110Z,8.68
2023-01-19T15:21:15.567Z,8.70
2023-01-19T15:23:42.236Z,8.03
2023-01-19T15:26:12.951Z,6.67
2023-01-19T15:28:39.600Z,6.97
2023-01-19T15:31:06.241Z,7.67
2023-01-19T15:33:32.852Z,10.80
2023-01-19T15:35:59.560Z,11.47
2023-01-19T15:38:26.645Z,7.43
2023-01-19T15:40:53.299Z,11.07
2023-01-19T15:43:21.124Z,6.83
2023-01-19T15:45:56.943Z,9.43
2023-01-19T15:48:23.737Z,9.30
2023-01-19T15:50:50.412Z,10.53
2023-01-19T15:53:19.930Z,9.17
2023-01-19T15:55:50.998Z,6.23
2023-01-19T15:58:18.593Z,6.90
2023-01-19T16:00:45.238Z,10.13
2023-01-19T16:03:11.895Z,10.33
2023-01-19T16:05:43.387Z,13.80
2023-01-19T16:08:11.626Z,9.63
2023-01-19T16:10:38.410Z,10.87
2023-01-19T16:13:05.020Z,11.33
2023-01-19T16:15:31.631Z,9.37
2023-01-19T16:17:58.479Z,10.97
2023-01-19T16:20:25.066Z,8.97
2023-01-19T16:22:51.675Z,8.93
2023-01-19T16:25:18.231Z,7.40
2023-01-19T16:27:44.844Z,9.00
2023-01-19T16:30:12.650Z,8.00
2023-01-19T16:32:39.411Z,9.20
2023-01-19T16:35:06.463Z,9.70
2023-01-19T16:37:33.230Z,10.00
2023-01-19T16:39:59.884Z,8.57
2023-01-19T16:42:26.516Z,9.33
2023-01-19T16:44:54.593Z,8.77
2023-01-19T16:47:21.405Z,14.17
2023-01-19T16:49:47.982Z,11.87
2023-01-19T16:52:14.563Z,11.27
2023-01-19T16:54:43.042Z,8.93
2023-01-19T16:57:10.457Z,9.77
2023-01-19T16:59:37.494Z,12.27
2023-01-19T17:02:04.192Z,9.60
2023-01-19T17:04:30.999Z,10.53
2023-01-19T17:06:57.601Z,7.93
2023-01-19T17:09:24.166Z,7.60
2023-01-19T17:11:50.740Z,8.97
2023-01-19T17:14:22.286Z,6.97
2023-01-19T17:16:49.512Z,8.40
2023-01-19T17:19:20.129Z,6.30
2023-01-19T17:21:48.935Z,9.97
2023-01-19T17:24:16.118Z,8.57
2023-01-19T17:26:45.864Z,12.00
2023-01-19T17:29:12.594Z,7.77
2023-01-19T17:31:39.272Z,13.53
2023-01-19T17:34:06.156Z,8.23
2023-01-19T17:36:33.109Z,11.37
2023-01-19T17:39:04.489Z,8.83
2023-01-19T17:41:33.033Z,14.77
2023-01-19T17:44:00.570Z,9.97
2023-01-19T17:46:28.360Z,12.27
2023-01-19T17:49:01.764Z,10.33
2023-01-19T17:51:29.077Z,9.23
2023-01-19T17:53:56.251Z,6.77
2023-01-19T17:56:29.763Z,7.60
2023-01-19T17:58:57.669Z,11.37
2023-01-19T18:01:29.052Z,11.07
2023-01-19T18:03:56.321Z,9.43
2023-01-19T18:06:22.986Z,12.67
2023-01-19T18:08:49.949Z,8.03
2023-01-19T18:11:19.121Z,10.97
2023-01-19T18:13:46.574Z,13.27
2023-01-19T18:16:15.665Z,14.23
2023-01-19T18:18:44.129Z,12.80
2023-01-19T18:21:13.221Z,10.70
2023-01-19T18:23:43.293Z,14.47
2023-01-19T18:26:12.710Z,6.10
2023-01-19T18:28:39.327Z,13.53
2023-01-19T18:31:15.121Z,12.43
2023-01-19T18:33:42.069Z,9.57
2023-01-19T18:36:11.385Z,9.97
2023-01-19T18:38:39.485Z,7.60
2023-01-19T18:41:14.790Z,10.40
2023-01-19T18:43:41.573Z,10.17
2023-01-19T18:46:08.548Z,6.73
2023-01-19T18:48:35.395Z,8.23
2023-01-19T18:51:12.729Z,11.17
2023-01-19T18:53:39.569Z,9.67
2023-01-19T18:56:06.887Z,16.13
2023-01-19T18:58:34.549Z,13.67
2023-01-19T19:01:01.754Z,10.90
2023-01-19T19:03:28.775Z,9.10
2023-01-19T19:05:55.590Z,6.90
2023-01-19T19:08:22.312Z,8.60
2023-01-19T19:10:48.938Z,8.37
2023-01-19T19:13:16.445Z,9.00
2023-01-19T19:15:44.460Z,10.17
2023-01-19T19:18:13.847Z,9.97
2023-01-19T19:20:42.180Z,8.97
2023-01-19T19:23:09.122Z,8.13
2023-01-19T19:25:35.776Z,10.60
2023-01-19T19:28:02.910Z,8.47
2023-01-19T19:30:29.822Z,12.27
2023-01-19T19:32:56.946Z,8.27
2023-01-19T19:35:24.015Z,12.13
2023-01-19T19:37:51.581Z,11.30
2023-01-19T19:40:18.368Z,8.20
2023-01-19T19:42:45.079Z,10.27
2023-01-19T19:45:12.410Z,11.67
2023-01-19T19:47:39.028Z,9.80
2023-01-19T19:50:06.599Z,9.37
2023-01-19T19:52:38.218Z,7.90
2023-01-19T19:55:06.596Z,9.47
2023-01-19T19:57:33.188Z,10.97
2023-01-19T19:59:59.787Z,11.13
2023-01-19T20:02:26.453Z,9.93
2023-01-19T20:04:53.061Z,11.57
2023-01-19T20:07:19.684Z,11.97
2023-01-19T20:09:46.438Z,9.80
2023-01-19T20:12:13.019Z,5.47
2023-01-19T20:14:39.618Z,9.60
2023-01-19T20:17:06.184Z,10.03
2023-01-19T20:19:32.806Z,8.73
2023-01-19T20:21:59.589Z,11.90
2023-01-19T20:24:26.186Z,11.67
2023-01-19T20:26:53.218Z,9.37
2023-01-19T20:29:20.383Z,9.53
2023-01-19T20:31:53.113Z,11.00
2023-01-19T20:34:21.669Z,9.20
2023-01-19T20:36:50.305Z,7.70
2023-01-19T20:39:18.429Z,7.17
2023-01-19T20:41:45.686Z,10.03
2023-01-19T20:44:14.826Z,9.53
2023-01-19T20:46:41.881Z,10.57
2023-01-19T20:49:08.476Z,7.70
2023-01-19T20:51:36.032Z,11.43
2023-01-19T20:54:02.693Z,10.93
2023-01-19T20:56:29.302Z,11.40
2023-01-19T20:58:55.917Z,12.23
2023-01-19T21:01:24.591Z,13.23
2023-01-19T21:03:51.871Z,10.80
2023-01-19T21:06:19.907Z,10.80
2023-01-19T21:08:49.683Z,7.53
2023-01-19T21:11:18.844Z,9.63
2023-01-19T21:13:45.426Z,10.13
2023-01-19T21:16:12.220Z,7.07
2023-01-19T21:18:38.833Z,8.87
2023-01-19T21:21:05.582Z,8.07
2023-01-19T21:23:32.161Z,10.73
2023-01-19T21:25:59.986Z,10.43
2023-01-19T21:28:27.831Z,11.33
2023-01-19T21:30:55.549Z,10.97
2023-01-19T21:33:22.693Z,9.63
2023-01-19T21:35:57.280Z,8.80
2023-01-19T21:38:28.883Z,18.60
2023-01-19T21:40:56.999Z,16.17
2023-01-19T21:43:24.600Z,21.87
2023-01-19T21:45:51.316Z,21.57
2023-01-19T21:48:18.099Z,26.00
2023-01-19T21:50:44.798Z,23.97
2023-01-19T21:53:11.806Z,23.67
2023-01-19T21:55:43.365Z,18.93
2023-01-19T21:58:10.126Z,22.57
2023-01-19T22:00:36.730Z,18.07
2023-01-19T22:03:04.647Z,19.87
2023-01-19T22:05:36.706Z,14.30
2023-01-19T22:08:04.901Z,16.43
2023-01-19T22:10:31.513Z,21.87
2023-01-19T22:12:58.081Z,23.33
2023-01-19T22:15:24.798Z,12.57
2023-01-19T22:17:51.401Z,14.60
2023-01-19T22:20:18.075Z,11.90
2023-01-19T22:22:44.671Z,8.17
2023-01-19T22:25:11.513Z,10.43
2023-01-19T22:27:38.867Z,8.50
2023-01-19T22:30:06.083Z,8.80
2023-01-19T22:32:32.711Z,7.87
2023-01-19T22:34:59.360Z,9.47
2023-01-19T22:37:25.947Z,12.93
2023-01-19T22:39:53.228Z,9.00
2023-01-19T22:42:19.841Z,8.73
2023-01-19T22:44:46.965Z,13.20
2023-01-19T22:47:13.582Z,12.93
2023-01-19T22:49:40.737Z,9.90
2023-01-19T22:52:07.409Z,17.57
2023-01-19T22:54:34.360Z,17.27
2023-01-19T22:57:01.108Z,13.23
2023-01-19T22:59:27.727Z,13.00
2023-01-19T23:01:54.458Z,12.83
2023-01-19T23:04:21.229Z,14.10
2023-01-19T23:06:50.556Z,14.80
2023-01-19T23:09:17.648Z,10.83
2023-01-19T23:11:50.257Z,12.00
2023-01-19T23:14:19.403Z,8.80
2023-01-19T23:16:47.272Z,11.53
2023-01-19T23:19:14.531Z,9.47
2023-01-19T23:21:41.294Z,16.43
2023-01-19T23:24:08.129Z,10.03
2023-01-19T23:26:40.571Z,9.30
2023-01-19T23:29:10.301Z,13.97
2023-01-19T23:31:38.525Z,8.43
2023-01-19T23:34:07.001Z,7.77
2023-01-19T23:36:36.121Z,7.07
2023-01-19T23:39:06.292Z,9.20
2023-01-19T23:41:36.804Z,11.73
2023-01-19T23:44:04.289Z,10.03
2023-01-19T23:46:31.239Z,11.13
2023-01-19T23:48:57.889Z,5.77
2023-01-19T23:51:26.822Z,7.00
2023-01-19T23:53:53.513Z,7.83
2023-01-19T23:56:25.002Z,13.10
2023-01-19T23:58:57.134Z,6.03
